sensor_id;sensor_type;location;lat;lon;timestamp;pressure;altitude;pressure_sealevel;temperature;humidity
49949;BME280;35840;45.982;8.890;2023-03-22T00:01:17;98324.84;;;10.98;66.41
49949;BME280;35840;45.982;8.890;2023-03-22T00:03:46;98328.97;;;11.01;66.14
49949;BME280;35840;45.982;8.890;2023-03-22T00:06:14;98328.06;;;11.02;66.27
49949;BME280;35840;45.982;8.890;2023-03-22T00:08:42;98327.25;;;11.01;65.73
49949;BME280;35840;45.982;8.890;2023-03-22T00:11:10;98319.09;;;10.95;66.00
49949;BME280;35840;45.982;8.890;2023-03-22T00:13:37;98326.16;;;10.91;65.87
49949;BME280;35840;45.982;8.890;2023-03-22T00:16:04;98323.16;;;10.84;66.23
49949;BME280;35840;45.982;8.890;2023-03-22T00:18:31;98315.44;;;10.84;66.33
49949;BME280;35840;45.982;8.890;2023-03-22T00:20:58;98309.44;;;10.84;66.22
49949;BME280;35840;45.982;8.890;2023-03-22T00:23:27;98312.13;;;10.82;66.68
49949;BME280;35840;45.982;8.890;2023-03-22T00:25:54;98320.03;;;10.79;67.13
49949;BME280;35840;45.982;8.890;2023-03-22T00:28:22;98311.50;;;10.79;66.59
49949;BME280;35840;45.982;8.890;2023-03-22T00:30:58;98314.06;;;10.79;66.65
49949;BME280;35840;45.982;8.890;2023-03-22T00:33:29;98315.09;;;10.76;66.59
49949;BME280;35840;45.982;8.890;2023-03-22T00:36:07;98317.00;;;10.73;66.75
49949;BME280;35840;45.982;8.890;2023-03-22T00:38:35;98317.84;;;10.73;66.90
49949;BME280;35840;45.982;8.890;2023-03-22T00:43:37;98319.31;;;10.63;67.11
49949;BME280;35840;45.982;8.890;2023-03-22T00:46:05;98322.28;;;10.57;67.40
49949;BME280;35840;45.982;8.890;2023-03-22T00:48:32;98318.34;;;10.51;67.15
49949;BME280;35840;45.982;8.890;2023-03-22T00:50:58;98319.03;;;10.53;67.18
49949;BME280;35840;45.982;8.890;2023-03-22T00:53:26;98315.28;;;10.59;66.81
49949;BME280;35840;45.982;8.890;2023-03-22T00:55:57;98316.84;;;10.61;67.10
49949;BME280;35840;45.982;8.890;2023-03-22T00:58:27;98312.09;;;10.55;67.22
49949;BME280;35840;45.982;8.890;2023-03-22T01:00:53;98315.03;;;10.49;67.20
49949;BME280;35840;45.982;8.890;2023-03-22T01:03:20;98306.97;;;10.41;67.79
49949;BME280;35840;45.982;8.890;2023-03-22T01:05:48;98302.63;;;10.41;67.81
49949;BME280;35840;45.982;8.890;2023-03-22T01:08:15;98306.59;;;10.47;67.44
49949;BME280;35840;45.982;8.890;2023-03-22T01:10:42;98295.38;;;10.48;67.58
49949;BME280;35840;45.982;8.890;2023-03-22T01:13:11;98299.16;;;10.42;67.10
49949;BME280;35840;45.982;8.890;2023-03-22T01:15:38;98296.69;;;10.41;67.47
49949;BME280;35840;45.982;8.890;2023-03-22T01:18:04;98295.84;;;10.40;67.71
49949;BME280;35840;45.982;8.890;2023-03-22T01:20:33;98300.97;;;10.40;67.75
49949;BME280;35840;45.982;8.890;2023-03-22T01:23:00;98299.75;;;10.31;68.20
49949;BME280;35840;45.982;8.890;2023-03-22T01:25:27;98303.53;;;10.26;68.58
49949;BME280;35840;45.982;8.890;2023-03-22T01:27:54;98303.53;;;10.26;68.08
49949;BME280;35840;45.982;8.890;2023-03-22T01:30:20;98294.72;;;10.30;68.01
49949;BME280;35840;45.982;8.890;2023-03-22T01:32:47;98299.66;;;10.33;67.78
49949;BME280;35840;45.982;8.890;2023-03-22T01:35:15;98302.34;;;10.31;67.81
49949;BME280;35840;45.982;8.890;2023-03-22T01:37:42;98292.44;;;10.25;68.05
49949;BME280;35840;45.982;8.890;2023-03-22T01:40:11;98298.59;;;10.23;67.90
49949;BME280;35840;45.982;8.890;2023-03-22T01:42:39;98286.66;;;10.22;68.08
49949;BME280;35840;45.982;8.890;2023-03-22T01:50:13;98287.03;;;10.15;67.81
49949;BME280;35840;45.982;8.890;2023-03-22T01:52:44;98291.59;;;10.10;67.91
49949;BME280;35840;45.982;8.890;2023-03-22T01:55:18;98286.75;;;10.06;67.88
49949;BME280;35840;45.982;8.890;2023-03-22T01:57:55;98284.56;;;9.99;68.55
49949;BME280;35840;45.982;8.890;2023-03-22T02:00:35;98285.38;;;10.00;68.14
49949;BME280;35840;45.982;8.890;2023-03-22T02:06:04;98286.09;;;10.02;68.57
49949;BME280;35840;45.982;8.890;2023-03-22T02:08:32;98289.78;;;9.98;68.53
49949;BME280;35840;45.982;8.890;2023-03-22T02:11:05;98294.34;;;9.93;69.21
49949;BME280;35840;45.982;8.890;2023-03-22T02:13:51;98299.66;;;9.90;69.75
49949;BME280;35840;45.982;8.890;2023-03-22T02:22:06;98287.13;;;9.99;67.99
49949;BME280;35840;45.982;8.890;2023-03-22T02:25:00;98291.50;;;9.97;68.25
49949;BME280;35840;45.982;8.890;2023-03-22T02:41:49;98297.34;;;9.71;69.13
49949;BME280;35840;45.982;8.890;2023-03-22T02:44:48;98295.63;;;9.71;68.35
49949;BME280;35840;45.982;8.890;2023-03-22T02:47:24;98295.03;;;9.66;67.91
49949;BME280;35840;45.982;8.890;2023-03-22T02:50:05;98296.50;;;9.56;68.44
49949;BME280;35840;45.982;8.890;2023-03-22T03:00:07;98298.75;;;9.46;69.19
49949;BME280;35840;45.982;8.890;2023-03-22T03:02:43;98304.53;;;9.50;69.43
49949;BME280;35840;45.982;8.890;2023-03-22T03:05:13;98307.09;;;9.50;69.04
49949;BME280;35840;45.982;8.890;2023-03-22T03:07:48;98307.84;;;9.52;69.12
49949;BME280;35840;45.982;8.890;2023-03-22T03:10:19;98307.00;;;9.51;68.87
49949;BME280;35840;45.982;8.890;2023-03-22T03:12:46;98308.03;;;9.48;68.58
49949;BME280;35840;45.982;8.890;2023-03-22T03:15:19;98300.47;;;9.45;68.39
49949;BME280;35840;45.982;8.890;2023-03-22T03:29:48;98316.81;;;9.28;69.66
49949;BME280;35840;45.982;8.890;2023-03-22T03:32:25;98317.56;;;9.30;69.10
49949;BME280;35840;45.982;8.890;2023-03-22T03:35:02;98326.09;;;9.31;68.74
49949;BME280;35840;45.982;8.890;2023-03-22T03:37:44;98321.13;;;9.28;68.76
49949;BME280;35840;45.982;8.890;2023-03-22T03:40:28;98323.97;;;9.23;69.49
49949;BME280;35840;45.982;8.890;2023-03-22T03:42:59;98327.34;;;9.24;69.72
49949;BME280;35840;45.982;8.890;2023-03-22T03:45:29;98317.25;;;9.21;70.79
49949;BME280;35840;45.982;8.890;2023-03-22T03:47:59;98316.63;;;9.17;70.41
49949;BME280;35840;45.982;8.890;2023-03-22T03:50:26;98315.13;;;9.13;70.49
49949;BME280;35840;45.982;8.890;2023-03-22T03:52:55;98314.06;;;9.17;70.66
49949;BME280;35840;45.982;8.890;2023-03-22T03:55:23;98312.94;;;9.21;68.74
49949;BME280;35840;45.982;8.890;2023-03-22T03:57:49;98305.44;;;9.18;69.29
49949;BME280;35840;45.982;8.890;2023-03-22T04:00:17;98312.56;;;9.13;69.95
49949;BME280;35840;45.982;8.890;2023-03-22T04:03:07;98315.38;;;9.08;69.97
49949;BME280;35840;45.982;8.890;2023-03-22T04:05:49;98312.97;;;9.05;70.38
49949;BME280;35840;45.982;8.890;2023-03-22T04:08:15;98309.59;;;9.05;70.94
49949;BME280;35840;45.982;8.890;2023-03-22T04:10:42;98311.16;;;9.07;70.61
49949;BME280;35840;45.982;8.890;2023-03-22T04:13:14;98309.34;;;9.09;70.50
49949;BME280;35840;45.982;8.890;2023-03-22T04:15:41;98313.47;;;9.12;69.19
49949;BME280;35840;45.982;8.890;2023-03-22T04:18:12;98316.03;;;9.12;69.03
49949;BME280;35840;45.982;8.890;2023-03-22T04:20:39;98321.44;;;9.07;69.81
49949;BME280;35840;45.982;8.890;2023-03-22T04:23:07;98314.06;;;9.01;69.77
49949;BME280;35840;45.982;8.890;2023-03-22T04:25:37;98316.69;;;9.00;69.35
49949;BME280;35840;45.982;8.890;2023-03-22T04:28:08;98322.91;;;8.95;69.54
49949;BME280;35840;45.982;8.890;2023-03-22T04:30:36;98318.75;;;8.93;69.69
49949;BME280;35840;45.982;8.890;2023-03-22T04:33:18;98320.25;;;8.97;68.99
49949;BME280;35840;45.982;8.890;2023-03-22T04:36:09;98323.34;;;8.88;69.02
49949;BME280;35840;45.982;8.890;2023-03-22T04:38:50;98320.94;;;8.85;70.00
49949;BME280;35840;45.982;8.890;2023-03-22T04:41:21;98329.53;;;8.84;69.79
49949;BME280;35840;45.982;8.890;2023-03-22T04:43:50;98323.66;;;8.82;69.65
49949;BME280;35840;45.982;8.890;2023-03-22T04:46:17;98327.97;;;8.81;69.59
49949;BME280;35840;45.982;8.890;2023-03-22T04:48:53;98328.13;;;8.78;69.52
49949;BME280;35840;45.982;8.890;2023-03-22T04:51:20;98336.22;;;8.70;70.40
49949;BME280;35840;45.982;8.890;2023-03-22T04:54:02;98332.91;;;8.68;69.88
49949;BME280;35840;45.982;8.890;2023-03-22T04:56:28;98333.09;;;8.65;70.23
49949;BME280;35840;45.982;8.890;2023-03-22T04:58:55;98336.28;;;8.69;69.92
49949;BME280;35840;45.982;8.890;2023-03-22T05:01:22;98338.94;;;8.67;69.20
49949;BME280;35840;45.982;8.890;2023-03-22T05:03:58;98334.06;;;8.63;69.41
49949;BME280;35840;45.982;8.890;2023-03-22T05:06:25;98341.75;;;8.63;70.37
49949;BME280;35840;45.982;8.890;2023-03-22T05:09:07;98354.31;;;8.67;69.72
49949;BME280;35840;45.982;8.890;2023-03-22T05:11:34;98350.19;;;8.65;69.04
49949;BME280;35840;45.982;8.890;2023-03-22T05:14:16;98342.81;;;8.58;69.25
49949;BME280;35840;45.982;8.890;2023-03-22T05:16:44;98349.59;;;8.59;69.49
49949;BME280;35840;45.982;8.890;2023-03-22T05:19:12;98351.50;;;8.56;70.10
49949;BME280;35840;45.982;8.890;2023-03-22T05:21:46;98354.22;;;8.53;70.25
49949;BME280;35840;45.982;8.890;2023-03-22T05:24:13;98351.66;;;8.53;70.73
49949;BME280;35840;45.982;8.890;2023-03-22T05:26:44;98359.94;;;8.58;70.07
49949;BME280;35840;45.982;8.890;2023-03-22T05:29:11;98358.13;;;8.60;70.22
49949;BME280;35840;45.982;8.890;2023-03-22T05:31:56;98364.13;;;8.59;70.10
49949;BME280;35840;45.982;8.890;2023-03-22T05:34:23;98360.94;;;8.55;69.15
49949;BME280;35840;45.982;8.890;2023-03-22T05:36:50;98366.22;;;8.52;69.32
49949;BME280;35840;45.982;8.890;2023-03-22T05:39:29;98364.78;;;8.47;70.37
49949;BME280;35840;45.982;8.890;2023-03-22T05:41:57;98367.50;;;8.43;70.27
49949;BME280;35840;45.982;8.890;2023-03-22T05:44:24;98352.66;;;8.33;70.66
49949;BME280;35840;45.982;8.890;2023-03-22T05:47:05;98372.75;;;8.40;71.57
49949;BME280;35840;45.982;8.890;2023-03-22T05:49:53;98371.03;;;8.41;71.73
49949;BME280;35840;45.982;8.890;2023-03-22T05:52:22;98368.31;;;8.44;71.89
49949;BME280;35840;45.982;8.890;2023-03-22T05:55:00;98370.41;;;8.53;70.76
49949;BME280;35840;45.982;8.890;2023-03-22T05:57:27;98373.91;;;8.52;71.19
49949;BME280;35840;45.982;8.890;2023-03-22T05:59:56;98374.63;;;8.54;70.87
49949;BME280;35840;45.982;8.890;2023-03-22T06:02:27;98380.81;;;8.50;71.11
49949;BME280;35840;45.982;8.890;2023-03-22T06:04:54;98379.03;;;8.52;71.32
49949;BME280;35840;45.982;8.890;2023-03-22T06:07:22;98376.53;;;8.51;71.70
49949;BME280;35840;45.982;8.890;2023-03-22T06:09:52;98375.69;;;8.50;71.34
49949;BME280;35840;45.982;8.890;2023-03-22T06:12:23;98377.53;;;8.48;71.66
49949;BME280;35840;45.982;8.890;2023-03-22T06:15:12;98382.09;;;8.41;71.75
49949;BME280;35840;45.982;8.890;2023-03-22T06:17:48;98378.50;;;8.46;72.42
49949;BME280;35840;45.982;8.890;2023-03-22T06:20:20;98368.00;;;8.50;72.95
49949;BME280;35840;45.982;8.890;2023-03-22T06:22:53;98374.56;;;8.56;72.99
49949;BME280;35840;45.982;8.890;2023-03-22T06:25:19;98375.66;;;8.68;72.95
49949;BME280;35840;45.982;8.890;2023-03-22T06:27:49;98370.13;;;8.75;73.53
49949;BME280;35840;45.982;8.890;2023-03-22T06:30:16;98377.34;;;8.85;73.37
49949;BME280;35840;45.982;8.890;2023-03-22T06:33:03;98377.00;;;8.91;73.31
49949;BME280;35840;45.982;8.890;2023-03-22T06:35:35;98372.78;;;8.90;74.11
49949;BME280;35840;45.982;8.890;2023-03-22T06:38:03;98378.75;;;8.90;75.01
49949;BME280;35840;45.982;8.890;2023-03-22T06:40:31;98378.16;;;8.85;75.20
49949;BME280;35840;45.982;8.890;2023-03-22T06:42:57;98383.03;;;8.90;75.20
49949;BME280;35840;45.982;8.890;2023-03-22T06:45:30;98381.72;;;8.99;75.40
49949;BME280;35840;45.982;8.890;2023-03-22T06:48:00;98382.22;;;9.05;75.25
49949;BME280;35840;45.982;8.890;2023-03-22T06:50:36;98370.28;;;9.04;75.51
49949;BME280;35840;45.982;8.890;2023-03-22T06:53:16;98388.81;;;9.25;75.88
49949;BME280;35840;45.982;8.890;2023-03-22T06:55:43;98388.72;;;9.27;76.10
49949;BME280;35840;45.982;8.890;2023-03-22T06:58:16;98393.38;;;9.36;76.35
49949;BME280;35840;45.982;8.890;2023-03-22T07:00:43;98387.91;;;9.42;75.88
49949;BME280;35840;45.982;8.890;2023-03-22T07:03:12;98401.22;;;9.49;75.92
49949;BME280;35840;45.982;8.890;2023-03-22T07:05:45;98400.06;;;9.55;76.44
49949;BME280;35840;45.982;8.890;2023-03-22T07:08:11;98401.53;;;9.59;76.44
49949;BME280;35840;45.982;8.890;2023-03-22T07:10:50;98404.84;;;9.61;76.30
49949;BME280;35840;45.982;8.890;2023-03-22T07:13:19;98398.53;;;9.67;76.24
49949;BME280;35840;45.982;8.890;2023-03-22T07:15:48;98405.16;;;9.71;76.86
49949;BME280;35840;45.982;8.890;2023-03-22T07:18:37;98406.81;;;9.72;76.41
49949;BME280;35840;45.982;8.890;2023-03-22T07:21:04;98406.31;;;9.81;76.19
49949;BME280;35840;45.982;8.890;2023-03-22T07:23:33;98411.25;;;9.84;76.20
49949;BME280;35840;45.982;8.890;2023-03-22T07:26:05;98403.28;;;9.89;75.23
49949;BME280;35840;45.982;8.890;2023-03-22T07:28:35;98400.53;;;9.92;74.58
49949;BME280;35840;45.982;8.890;2023-03-22T07:31:05;98409.38;;;10.02;73.93
49949;BME280;35840;45.982;8.890;2023-03-22T07:33:43;98406.56;;;10.07;73.20
49949;BME280;35840;45.982;8.890;2023-03-22T07:36:10;98406.94;;;10.15;73.20
49949;BME280;35840;45.982;8.890;2023-03-22T07:38:37;98409.97;;;10.22;73.17
49949;BME280;35840;45.982;8.890;2023-03-22T07:41:09;98410.16;;;10.33;72.61
49949;BME280;35840;45.982;8.890;2023-03-22T07:43:52;98409.44;;;10.31;73.23
49949;BME280;35840;45.982;8.890;2023-03-22T07:46:38;98403.88;;;10.39;72.40
49949;BME280;35840;45.982;8.890;2023-03-22T07:49:16;98415.28;;;10.49;71.99
49949;BME280;35840;45.982;8.890;2023-03-22T07:52:01;98416.00;;;10.51;71.36
49949;BME280;35840;45.982;8.890;2023-03-22T07:54:28;98408.09;;;10.54;72.82
49949;BME280;35840;45.982;8.890;2023-03-22T07:57:01;98407.19;;;10.55;72.22
49949;BME280;35840;45.982;8.890;2023-03-22T07:59:29;98404.44;;;10.44;71.94
49949;BME280;35840;45.982;8.890;2023-03-22T08:01:58;98403.44;;;10.46;72.09
49949;BME280;35840;45.982;8.890;2023-03-22T08:04:32;98402.59;;;10.46;71.55
49949;BME280;35840;45.982;8.890;2023-03-22T08:07:09;98399.78;;;10.50;71.72
49949;BME280;35840;45.982;8.890;2023-03-22T08:09:37;98397.91;;;10.53;71.68
49949;BME280;35840;45.982;8.890;2023-03-22T08:12:04;98399.38;;;10.57;71.55
49949;BME280;35840;45.982;8.890;2023-03-22T08:14:33;98390.38;;;10.64;71.07
49949;BME280;35840;45.982;8.890;2023-03-22T08:17:07;98388.19;;;10.72;70.90
49949;BME280;35840;45.982;8.890;2023-03-22T08:19:34;98395.53;;;10.78;69.82
49949;BME280;35840;45.982;8.890;2023-03-22T08:22:02;98404.25;;;10.90;69.31
49949;BME280;35840;45.982;8.890;2023-03-22T08:24:51;98396.97;;;10.97;69.47
49949;BME280;35840;45.982;8.890;2023-03-22T08:27:24;98395.97;;;10.99;69.31
49949;BME280;35840;45.982;8.890;2023-03-22T08:29:52;98384.47;;;11.05;69.89
49949;BME280;35840;45.982;8.890;2023-03-22T08:32:19;98388.56;;;11.22;68.85
49949;BME280;35840;45.982;8.890;2023-03-22T08:34:47;98389.38;;;11.23;68.57
49949;BME280;35840;45.982;8.890;2023-03-22T08:37:13;98388.81;;;11.32;67.85
49949;BME280;35840;45.982;8.890;2023-03-22T08:39:42;98391.94;;;11.37;66.82
49949;BME280;35840;45.982;8.890;2023-03-22T08:42:32;98397.25;;;11.61;65.35
49949;BME280;35840;45.982;8.890;2023-03-22T08:45:01;98392.59;;;11.53;66.06
49949;BME280;35840;45.982;8.890;2023-03-22T08:47:28;98388.41;;;11.65;64.92
49949;BME280;35840;45.982;8.890;2023-03-22T08:49:59;98394.41;;;11.79;63.82
49949;BME280;35840;45.982;8.890;2023-03-22T08:52:38;98388.94;;;11.83;63.08
49949;BME280;35840;45.982;8.890;2023-03-22T08:55:09;98387.31;;;11.82;62.82
49949;BME280;35840;45.982;8.890;2023-03-22T08:57:54;98387.72;;;11.89;64.41
49949;BME280;35840;45.982;8.890;2023-03-22T09:00:33;98385.09;;;12.03;67.60
49949;BME280;35840;45.982;8.890;2023-03-22T09:03:43;98379.56;;;12.22;66.44
49949;BME280;35840;45.982;8.890;2023-03-22T09:06:10;98391.41;;;12.38;64.95
49949;BME280;35840;45.982;8.890;2023-03-22T09:08:39;98384.19;;;12.43;62.89
49949;BME280;35840;45.982;8.890;2023-03-22T09:11:11;98392.34;;;12.37;62.37
49949;BME280;35840;45.982;8.890;2023-03-22T09:13:40;98386.56;;;12.59;64.94
49949;BME280;35840;45.982;8.890;2023-03-22T09:16:07;98371.06;;;12.72;64.16
49949;BME280;35840;45.982;8.890;2023-03-22T09:18:36;98386.75;;;12.82;63.64
49949;BME280;35840;45.982;8.890;2023-03-22T09:21:10;98384.34;;;12.91;60.95
49949;BME280;35840;45.982;8.890;2023-03-22T09:23:59;98377.94;;;12.97;62.61
49949;BME280;35840;45.982;8.890;2023-03-22T09:26:37;98369.00;;;13.14;60.97
49949;BME280;35840;45.982;8.890;2023-03-22T09:29:04;98372.91;;;13.20;60.41
49949;BME280;35840;45.982;8.890;2023-03-22T09:31:32;98365.63;;;13.25;60.13
49949;BME280;35840;45.982;8.890;2023-03-22T09:34:09;98366.84;;;13.32;61.30
49949;BME280;35840;45.982;8.890;2023-03-22T09:36:36;98377.19;;;13.56;60.44
49949;BME280;35840;45.982;8.890;2023-03-22T09:39:03;98377.34;;;13.66;61.95
49949;BME280;35840;45.982;8.890;2023-03-22T09:41:45;98373.38;;;13.73;60.15
49949;BME280;35840;45.982;8.890;2023-03-22T09:44:19;98356.81;;;13.65;59.62
49949;BME280;35840;45.982;8.890;2023-03-22T09:46:51;98365.16;;;13.68;58.72
49949;BME280;35840;45.982;8.890;2023-03-22T09:49:24;98364.72;;;13.74;60.22
49949;BME280;35840;45.982;8.890;2023-03-22T09:51:53;98354.75;;;13.81;59.18
49949;BME280;35840;45.982;8.890;2023-03-22T09:57:01;98347.03;;;13.92;59.09
49949;BME280;35840;45.982;8.890;2023-03-22T10:05:42;98338.38;;;14.16;58.51
49949;BME280;35840;45.982;8.890;2023-03-22T10:10:44;98335.06;;;14.25;56.36
49949;BME280;35840;45.982;8.890;2023-03-22T10:15:57;98328.84;;;14.28;58.60
49949;BME280;35840;45.982;8.890;2023-03-22T10:18:32;98326.38;;;14.38;58.41
49949;BME280;35840;45.982;8.890;2023-03-22T10:21:07;98317.78;;;14.49;55.98
49949;BME280;35840;45.982;8.890;2023-03-22T10:26:06;98310.88;;;14.72;57.23
49949;BME280;35840;45.982;8.890;2023-03-22T10:30:59;98310.63;;;14.75;58.76
49949;BME280;35840;45.982;8.890;2023-03-22T10:33:59;98313.81;;;15.11;58.28
49949;BME280;35840;45.982;8.890;2023-03-22T10:36:30;98316.84;;;15.27;56.14
49949;BME280;35840;45.982;8.890;2023-03-22T10:39:04;98310.34;;;15.33;53.38
49949;BME280;35840;45.982;8.890;2023-03-22T10:41:35;98312.13;;;15.32;54.48
49949;BME280;35840;45.982;8.890;2023-03-22T10:44:04;98309.59;;;15.42;55.79
49949;BME280;35840;45.982;8.890;2023-03-22T10:46:37;98300.81;;;15.55;55.97
49949;BME280;35840;45.982;8.890;2023-03-22T10:49:05;98302.13;;;15.70;54.48
49949;BME280;35840;45.982;8.890;2023-03-22T10:51:38;98298.63;;;15.92;52.20
49949;BME280;35840;45.982;8.890;2023-03-22T10:54:11;98297.59;;;16.05;53.21
49949;BME280;35840;45.982;8.890;2023-03-22T10:56:38;98292.28;;;16.06;54.17
49949;BME280;35840;45.982;8.890;2023-03-22T10:59:05;98287.69;;;16.20;52.48
49949;BME280;35840;45.982;8.890;2023-03-22T11:01:35;98286.28;;;16.46;50.98
49949;BME280;35840;45.982;8.890;2023-03-22T11:06:30;98281.75;;;16.39;50.93
49949;BME280;35840;45.982;8.890;2023-03-22T11:09:19;98281.13;;;16.56;51.39
49949;BME280;35840;45.982;8.890;2023-03-22T11:11:50;98274.44;;;16.53;50.79
49949;BME280;35840;45.982;8.890;2023-03-22T11:14:41;98272.50;;;16.56;52.33
49949;BME280;35840;45.982;8.890;2023-03-22T11:17:11;98267.78;;;16.70;50.60
49949;BME280;35840;45.982;8.890;2023-03-22T11:19:50;98271.19;;;16.81;50.68
49949;BME280;35840;45.982;8.890;2023-03-22T11:23:02;98273.41;;;16.85;50.43
49949;BME280;35840;45.982;8.890;2023-03-22T11:30:27;98274.00;;;17.28;49.14
49949;BME280;35840;45.982;8.890;2023-03-22T11:33:18;98275.38;;;17.32;49.88
49949;BME280;35840;45.982;8.890;2023-03-22T11:35:47;98262.75;;;17.37;51.51
49949;BME280;35840;45.982;8.890;2023-03-22T11:41:01;98261.94;;;17.57;47.79
49949;BME280;35840;45.982;8.890;2023-03-22T11:43:38;98266.16;;;17.58;47.25
49949;BME280;35840;45.982;8.890;2023-03-22T11:46:07;98266.84;;;17.60;47.28
49949;BME280;35840;45.982;8.890;2023-03-22T11:48:34;98260.00;;;17.59;49.12
49949;BME280;35840;45.982;8.890;2023-03-22T11:51:13;98257.94;;;17.72;48.14
49949;BME280;35840;45.982;8.890;2023-03-22T11:53:47;98257.66;;;17.75;47.98
49949;BME280;35840;45.982;8.890;2023-03-22T11:56:28;98242.94;;;18.03;47.28
49949;BME280;35840;45.982;8.890;2023-03-22T11:59:07;98239.28;;;17.96;48.98
49949;BME280;35840;45.982;8.890;2023-03-22T12:01:39;98227.63;;;18.00;47.72
49949;BME280;35840;45.982;8.890;2023-03-22T12:04:13;98228.69;;;18.08;49.12
49949;BME280;35840;45.982;8.890;2023-03-22T12:06:41;98232.06;;;18.18;47.56
49949;BME280;35840;45.982;8.890;2023-03-22T12:09:44;98232.09;;;18.08;46.79
49949;BME280;35840;45.982;8.890;2023-03-22T12:12:19;98226.13;;;18.26;45.69
49949;BME280;35840;45.982;8.890;2023-03-22T12:23:22;98213.50;;;18.31;46.10
49949;BME280;35840;45.982;8.890;2023-03-22T12:25:52;98203.44;;;18.18;45.71
49949;BME280;35840;45.982;8.890;2023-03-22T12:28:26;98204.72;;;18.32;46.25
49949;BME280;35840;45.982;8.890;2023-03-22T12:30:55;98194.41;;;18.40;45.52
49949;BME280;35840;45.982;8.890;2023-03-22T12:33:41;98193.91;;;18.54;44.23
49949;BME280;35840;45.982;8.890;2023-03-22T12:36:14;98194.34;;;18.68;44.41
49949;BME280;35840;45.982;8.890;2023-03-22T12:38:49;98178.47;;;18.61;43.98
49949;BME280;35840;45.982;8.890;2023-03-22T12:41:24;98181.94;;;18.62;44.48
49949;BME280;35840;45.982;8.890;2023-03-22T12:43:54;98181.06;;;18.89;42.39
49949;BME280;35840;45.982;8.890;2023-03-22T12:46:40;98181.59;;;18.92;41.29
49949;BME280;35840;45.982;8.890;2023-03-22T12:52:16;98170.31;;;18.92;44.56
49949;BME280;35840;45.982;8.890;2023-03-22T12:54:45;98162.16;;;18.87;42.07
49949;BME280;35840;45.982;8.890;2023-03-22T12:57:14;98161.53;;;18.93;42.77
49949;BME280;35840;45.982;8.890;2023-03-22T12:59:44;98157.59;;;19.07;42.12
49949;BME280;35840;45.982;8.890;2023-03-22T13:07:30;98146.63;;;19.03;41.79
49949;BME280;35840;45.982;8.890;2023-03-22T13:10:00;98152.06;;;19.10;40.49
49949;BME280;35840;45.982;8.890;2023-03-22T13:13:08;98142.69;;;18.99;40.41
49949;BME280;35840;45.982;8.890;2023-03-22T13:15:37;98141.56;;;19.02;41.24
49949;BME280;35840;45.982;8.890;2023-03-22T13:18:27;98134.53;;;18.94;41.20
49949;BME280;35840;45.982;8.890;2023-03-22T13:21:18;98137.28;;;18.92;43.36
49949;BME280;35840;45.982;8.890;2023-03-22T13:26:38;98146.06;;;19.18;40.79
49949;BME280;35840;45.982;8.890;2023-03-22T13:29:44;98140.22;;;19.16;40.75
49949;BME280;35840;45.982;8.890;2023-03-22T13:32:28;98129.16;;;19.22;39.50
49949;BME280;35840;45.982;8.890;2023-03-22T13:34:56;98121.56;;;19.29;40.11
49949;BME280;35840;45.982;8.890;2023-03-22T13:37:30;98118.94;;;19.29;41.11
49949;BME280;35840;45.982;8.890;2023-03-22T13:40:11;98122.06;;;19.32;40.80
49949;BME280;35840;45.982;8.890;2023-03-22T13:42:39;98113.50;;;19.48;40.05
49949;BME280;35840;45.982;8.890;2023-03-22T13:45:16;98115.00;;;19.59;39.56
49949;BME280;35840;45.982;8.890;2023-03-22T13:48:03;98110.84;;;19.66;39.58
49949;BME280;35840;45.982;8.890;2023-03-22T13:50:32;98108.19;;;19.58;39.86
49949;BME280;35840;45.982;8.890;2023-03-22T13:53:06;98104.28;;;19.62;41.97
49949;BME280;35840;45.982;8.890;2023-03-22T14:01:23;98099.06;;;19.62;39.34
49949;BME280;35840;45.982;8.890;2023-03-22T14:03:56;98091.13;;;19.72;38.98
49949;BME280;35840;45.982;8.890;2023-03-22T14:06:26;98091.09;;;19.64;38.80
49949;BME280;35840;45.982;8.890;2023-03-22T14:09:00;98092.91;;;19.71;39.57
49949;BME280;35840;45.982;8.890;2023-03-22T14:11:35;98086.03;;;19.70;39.79
49949;BME280;35840;45.982;8.890;2023-03-22T14:14:10;98088.41;;;19.82;39.52
49949;BME280;35840;45.982;8.890;2023-03-22T14:16:45;98082.66;;;19.78;38.69
49949;BME280;35840;45.982;8.890;2023-03-22T14:19:18;98079.25;;;19.77;39.88
49949;BME280;35840;45.982;8.890;2023-03-22T14:21:49;98076.66;;;19.86;38.66
49949;BME280;35840;45.982;8.890;2023-03-22T14:24:17;98072.44;;;19.85;39.67
49949;BME280;35840;45.982;8.890;2023-03-22T14:26:52;98065.59;;;19.84;39.47
49949;BME280;35840;45.982;8.890;2023-03-22T14:29:21;98066.22;;;19.86;38.54
49949;BME280;35840;45.982;8.890;2023-03-22T14:32:02;98070.16;;;19.90;39.01
49949;BME280;35840;45.982;8.890;2023-03-22T14:34:31;98062.97;;;19.84;37.27
49949;BME280;35840;45.982;8.890;2023-03-22T14:37:01;98060.06;;;19.87;37.49
49949;BME280;35840;45.982;8.890;2023-03-22T14:39:32;98059.41;;;19.85;37.54
49949;BME280;35840;45.982;8.890;2023-03-22T14:44:30;98056.63;;;19.86;38.07
49949;BME280;35840;45.982;8.890;2023-03-22T14:47:07;98066.56;;;19.83;37.86
49949;BME280;35840;45.982;8.890;2023-03-22T14:49:38;98057.72;;;19.75;38.12
49949;BME280;35840;45.982;8.890;2023-03-22T14:52:04;98057.09;;;19.82;37.25
49949;BME280;35840;45.982;8.890;2023-03-22T14:54:31;98060.16;;;19.77;37.95
49949;BME280;35840;45.982;8.890;2023-03-22T14:56:59;98057.34;;;19.70;37.83
49949;BME280;35840;45.982;8.890;2023-03-22T14:59:26;98061.09;;;19.59;38.80
49949;BME280;35840;45.982;8.890;2023-03-22T15:01:59;98065.31;;;19.52;38.13
49949;BME280;35840;45.982;8.890;2023-03-22T15:04:26;98068.22;;;19.49;39.00
49949;BME280;35840;45.982;8.890;2023-03-22T15:06:57;98055.16;;;19.41;38.93
49949;BME280;35840;45.982;8.890;2023-03-22T15:09:25;98059.25;;;19.43;38.51
49949;BME280;35840;45.982;8.890;2023-03-22T15:11:58;98066.09;;;19.53;38.05
49949;BME280;35840;45.982;8.890;2023-03-22T15:14:27;98061.53;;;19.47;39.42
49949;BME280;35840;45.982;8.890;2023-03-22T15:16:54;98055.34;;;19.56;38.84
49949;BME280;35840;45.982;8.890;2023-03-22T15:19:21;98055.19;;;19.49;40.41
49949;BME280;35840;45.982;8.890;2023-03-22T15:22:14;98060.22;;;19.42;39.41